createdAt,value
2022-11-19T00:01:33.708Z,17.97
2022-11-19T00:04:00.859Z,18.77
2022-11-19T00:06:28.462Z,17.97
2022-11-19T00:08:55.924Z,20.67
2022-11-19T00:11:44.941Z,16.33
2022-11-19T00:14:14.856Z,17.53
2022-11-19T00:16:44.458Z,18.40
2022-11-19T00:19:12.537Z,17.77
2022-11-19T00:21:40.440Z,22.43
2022-11-19T00:24:08.845Z,22.17
2022-11-19T00:26:36.865Z,20.80
2022-11-19T00:29:04.548Z,21.20
2022-11-19T00:31:32.115Z,18.97
2022-11-19T00:33:59.548Z,18.60
2022-11-19T00:36:27.066Z,19.90
2022-11-19T00:38:54.779Z,16.53
2022-11-19T00:41:23.958Z,19.37
2022-11-19T00:43:51.212Z,18.53
2022-11-19T00:46:20.168Z,18.33
2022-11-19T00:48:48.724Z,19.03
2022-11-19T00:51:17.878Z,15.60
2022-11-19T00:53:46.815Z,16.70
2022-11-19T00:56:18.230Z,14.50
2022-11-19T00:58:46.192Z,16.13
2022-11-19T01:01:15.520Z,15.70
2022-11-19T01:03:46.078Z,14.70
2022-11-19T01:06:19.113Z,16.90
2022-11-19T01:08:50.853Z,15.63
2022-11-19T01:11:21.711Z,14.53
2022-11-19T01:13:49.675Z,13.13
2022-11-19T01:16:30.832Z,14.57
2022-11-19T01:18:58.569Z,15.10
2022-11-19T01:21:28.975Z,10.63
2022-11-19T01:23:56.550Z,10.67
2022-11-19T01:26:26.087Z,13.60
2022-11-19T01:28:53.751Z,14.27
2022-11-19T01:31:24.387Z,16.43
2022-11-19T01:33:52.191Z,12.83
2022-11-19T01:36:22.927Z,15.47
2022-11-19T01:38:51.215Z,14.97
2022-11-19T01:41:24.666Z,17.27
2022-11-19T01:43:53.024Z,15.07
2022-11-19T01:46:26.417Z,15.50
2022-11-19T01:49:18.131Z,15.03
2022-11-19T01:52:02.837Z,16.67
2022-11-19T01:54:36.049Z,20.60
2022-11-19T01:57:09.151Z,16.67
2022-11-19T01:59:36.711Z,13.57
2022-11-19T02:02:04.208Z,14.53
2022-11-19T02:04:32.721Z,15.60
2022-11-19T02:07:00.232Z,16.77
2022-11-19T02:09:29.169Z,15.67
2022-11-19T02:12:19.388Z,15.80
2022-11-19T02:15:03.546Z,16.77
2022-11-19T02:17:51.067Z,16.00
2022-11-19T02:20:59.557Z,19.70
2022-11-19T02:23:53.251Z,15.47
2022-11-19T02:26:39.369Z,17.57
2022-11-19T02:29:30.076Z,16.57
2022-11-19T02:32:03.574Z,18.47
2022-11-19T02:52:52.969Z,19.53
2022-11-19T02:55:22.124Z,15.27
2022-11-19T02:58:37.708Z,16.93
2022-11-19T03:01:30.981Z,16.30
2022-11-19T03:04:22.337Z,15.47
2022-11-19T03:06:50.206Z,17.27
2022-11-19T03:09:18.071Z,17.90
2022-11-19T03:11:50.849Z,16.27
2022-11-19T03:14:44.735Z,14.60
2022-11-19T03:17:25.412Z,17.77
2022-11-19T03:20:03.148Z,15.60
2022-11-19T03:23:01.423Z,14.67
2022-11-19T03:25:50.640Z,16.07
2022-11-19T03:28:24.174Z,15.57
2022-11-19T03:30:52.665Z,16.90
2022-11-19T03:33:20.127Z,14.70
2022-11-19T03:35:52.516Z,15.77
2022-11-19T03:38:42.657Z,19.13
2022-11-19T03:41:26.129Z,18.87
2022-11-19T03:44:04.634Z,14.57
2022-11-19T03:46:35.310Z,17.57
2022-11-19T03:49:04.126Z,18.93
2022-11-19T03:51:44.706Z,22.30
2022-11-19T03:57:18.373Z,15.37
2022-11-19T03:59:48.947Z,17.87
2022-11-19T04:02:16.765Z,18.20
2022-11-19T04:04:43.926Z,18.77
2022-11-19T04:07:17.291Z,19.33
2022-11-19T04:09:44.976Z,21.13
2022-11-19T04:15:16.436Z,19.37
2022-11-19T04:17:48.058Z,23.10
2022-11-19T04:20:15.083Z,19.23
2022-11-19T04:22:42.483Z,19.77
2022-11-19T04:25:09.962Z,16.53
2022-11-19T04:27:37.314Z,21.87
2022-11-19T04:30:05.489Z,17.23
2022-11-19T04:35:34.406Z,23.70
2022-11-19T04:38:01.676Z,17.73
2022-11-19T04:40:28.686Z,21.20
2022-11-19T04:42:56.121Z,21.67
2022-11-19T04:45:23.202Z,18.20
2022-11-19T04:47:50.494Z,20.33
2022-11-19T04:50:23.342Z,20.43
2022-11-19T04:53:04.004Z,16.47
2022-11-19T04:55:31.151Z,16.53
2022-11-19T04:57:58.888Z,18.07
2022-11-19T05:00:26.107Z,17.67
2022-11-19T05:02:53.487Z,16.83
2022-11-19T05:05:20.570Z,20.30
2022-11-19T05:08:03.393Z,27.70
2022-11-19T05:10:37.110Z,30.00
2022-11-19T05:13:29.008Z,27.03
2022-11-19T05:15:57.165Z,22.23
2022-11-19T05:18:24.884Z,20.90
2022-11-19T05:20:51.808Z,19.17
2022-11-19T05:23:19.268Z,17.80
2022-11-19T05:25:47.226Z,20.97
2022-11-19T05:28:39.734Z,21.13
2022-11-19T05:31:26.119Z,22.00
2022-11-19T05:33:53.451Z,20.40
2022-11-19T05:36:20.485Z,18.17
2022-11-19T05:38:47.951Z,17.03
2022-11-19T05:41:14.963Z,20.50
2022-11-19T05:43:42.262Z,25.43
2022-11-19T05:46:20.126Z,16.57
2022-11-19T05:49:14.209Z,19.90
2022-11-19T05:51:41.285Z,19.27
2022-11-19T05:54:08.889Z,19.73
2022-11-19T05:56:35.986Z,20.03
2022-11-19T05:59:03.454Z,19.77
2022-11-19T06:01:30.792Z,20.93
2022-11-19T06:03:58.540Z,21.10
2022-11-19T06:06:27.441Z,21.53
2022-11-19T06:08:55.951Z,18.43
2022-11-19T06:11:41.514Z,20.53
2022-11-19T06:14:08.855Z,16.83
2022-11-19T06:16:35.845Z,21.33
2022-11-19T06:19:03.206Z,20.83
2022-11-19T06:22:03.125Z,21.13
2022-11-19T06:25:10.555Z,18.87
2022-11-19T06:27:37.622Z,21.27
2022-11-19T06:30:06.023Z,17.77
2022-11-19T06:32:33.233Z,19.90
2022-11-19T06:35:00.530Z,20.33
2022-11-19T06:37:27.583Z,20.60
2022-11-19T06:44:48.687Z,17.97
2022-11-19T06:47:16.238Z,21.47
2022-11-19T06:49:43.363Z,24.27
2022-11-19T06:52:10.742Z,19.77
2022-11-19T06:54:41.728Z,19.83
2022-11-19T06:57:10.636Z,18.30
2022-11-19T07:00:14.183Z,23.13
2022-11-19T07:03:03.290Z,21.30
2022-11-19T07:05:30.698Z,22.63
2022-11-19T07:08:02.748Z,24.90
2022-11-19T07:10:32.074Z,27.33
2022-11-19T07:13:00.246Z,19.70
2022-11-19T07:15:27.303Z,23.87
2022-11-19T07:18:00.284Z,24.40
2022-11-19T07:20:50.095Z,22.27
2022-11-19T07:23:17.618Z,23.63
2022-11-19T07:25:44.606Z,22.23
2022-11-19T07:28:12.108Z,29.97
2022-11-19T07:30:39.702Z,21.57
2022-11-19T07:33:08.362Z,24.27
2022-11-19T07:36:05.439Z,21.37
2022-11-19T07:38:46.458Z,23.30
2022-11-19T07:41:32.300Z,23.03
2022-11-19T07:44:14.243Z,21.97
2022-11-19T07:46:41.720Z,21.37
2022-11-19T07:49:08.846Z,21.70
2022-11-19T07:51:36.190Z,21.63
2022-11-19T07:54:24.772Z,25.07
2022-11-19T07:56:54.923Z,22.53
2022-11-19T07:59:22.302Z,22.67
2022-11-19T08:01:50.192Z,19.10
2022-11-19T08:04:17.285Z,19.27
2022-11-19T08:06:44.638Z,19.10
2022-11-19T08:09:11.605Z,22.73
2022-11-19T08:11:52.121Z,21.83
2022-11-19T08:14:19.399Z,27.57
2022-11-19T08:17:38.465Z,24.47
2022-11-19T08:20:06.016Z,26.53
2022-11-19T08:22:33.348Z,25.47
2022-11-19T08:25:00.352Z,22.00
2022-11-19T08:27:27.758Z,26.73
2022-11-19T08:29:55.335Z,23.20
2022-11-19T08:32:57.119Z,25.27
2022-11-19T08:35:40.917Z,26.73
2022-11-19T08:38:08.573Z,25.23
2022-11-19T08:40:35.701Z,26.43
2022-11-19T08:43:03.726Z,30.67
2022-11-19T08:45:39.134Z,25.77
2022-11-19T08:48:10.535Z,24.53
2022-11-19T08:50:46.493Z,27.63
2022-11-19T08:53:35.324Z,30.47
2022-11-19T08:56:02.351Z,25.30
2022-11-19T08:58:30.840Z,28.10
2022-11-19T09:00:57.959Z,24.07
2022-11-19T09:03:25.881Z,21.07
2022-11-19T09:06:01.966Z,21.53
2022-11-19T09:08:35.425Z,22.63
2022-11-19T09:11:22.588Z,21.80
2022-11-19T09:13:50.004Z,19.00
2022-11-19T09:16:17.597Z,23.20
2022-11-19T09:18:44.904Z,22.20
2022-11-19T09:21:12.419Z,20.53
2022-11-19T09:23:40.093Z,21.23
2022-11-19T09:26:32.076Z,18.83
2022-11-19T09:29:06.144Z,21.00
2022-11-19T09:31:33.550Z,20.77
2022-11-19T09:34:01.885Z,23.23
2022-11-19T09:36:29.054Z,16.73
2022-11-19T09:38:58.195Z,19.30
2022-11-19T09:41:28.400Z,19.07
2022-11-19T09:44:47.918Z,17.73
2022-11-19T09:48:15.627Z,18.60
2022-11-19T09:50:53.600Z,20.27
2022-11-19T09:53:23.859Z,17.70
2022-11-19T09:55:53.658Z,17.03
2022-11-19T09:58:27.879Z,18.23
2022-11-19T10:00:55.119Z,20.70
2022-11-19T10:04:30.050Z,21.37
2022-11-19T10:08:06.181Z,23.53
2022-11-19T10:10:47.329Z,18.50
2022-11-19T10:14:07.003Z,21.80
2022-11-19T10:16:52.654Z,16.60
2022-11-19T10:19:56.951Z,20.77
2022-11-19T10:23:37.948Z,17.70
2022-11-19T10:26:35.878Z,18.00
2022-11-19T10:29:14.979Z,17.70
2022-11-19T10:40:53.377Z,17.30
2022-11-19T10:43:46.356Z,18.10
2022-11-19T10:46:17.200Z,18.13
2022-11-19T10:49:02.176Z,16.20
2022-11-19T10:51:42.591Z,19.10
2022-11-19T10:54:28.176Z,19.63
2022-11-19T10:56:57.859Z,20.73
2022-11-19T10:59:27.783Z,17.60
2022-11-19T11:02:04.140Z,20.60
2022-11-19T11:04:31.624Z,20.67
2022-11-19T11:07:04.030Z,20.50
2022-11-19T11:09:43.054Z,20.47
2022-11-19T11:12:36.834Z,19.03
2022-11-19T11:15:19.031Z,18.60
2022-11-19T11:17:47.640Z,18.43
2022-11-19T11:20:18.145Z,20.13
2022-11-19T11:22:48.773Z,18.37
2022-11-19T11:25:23.086Z,16.30
2022-11-19T11:28:13.177Z,17.67
2022-11-19T11:31:27.840Z,19.43
2022-11-19T11:33:57.272Z,16.17
2022-11-19T11:36:30.839Z,16.20
2022-11-19T11:39:00.659Z,20.03
2022-11-19T11:44:25.832Z,15.20
2022-11-19T11:46:56.153Z,15.90
2022-11-19T11:49:42.157Z,18.77
2022-11-19T11:52:12.253Z,16.37
2022-11-19T11:54:54.933Z,14.00
2022-11-19T11:57:31.592Z,16.43
2022-11-19T11:59:59.609Z,16.30
2022-11-19T12:02:34.187Z,16.17
2022-11-19T12:05:16.134Z,12.67
2022-11-19T12:08:07.924Z,13.77
2022-11-19T12:10:47.711Z,15.97
2022-11-19T12:13:53.443Z,14.20
2022-11-19T12:16:36.156Z,16.70
2022-11-19T12:19:15.628Z,18.17
2022-11-19T12:21:45.918Z,14.13
2022-11-19T12:24:34.496Z,15.43
2022-11-19T12:27:07.276Z,13.03
2022-11-19T12:29:41.975Z,17.43
2022-11-19T12:32:32.754Z,15.47
2022-11-19T12:35:38.723Z,18.27
2022-11-19T12:38:30.262Z,17.53
2022-11-19T12:41:34.722Z,18.17
2022-11-19T12:44:33.786Z,14.97
2022-11-19T12:47:10.142Z,14.50
2022-11-19T12:49:51.703Z,16.47
2022-11-19T12:52:56.900Z,15.03
2022-11-19T13:10:52.751Z,13.07
2022-11-19T13:13:26.719Z,11.83
2022-11-19T13:16:07.300Z,13.20
2022-11-19T13:18:36.328Z,10.80
2022-11-19T13:21:16.579Z,12.40
2022-11-19T13:23:48.459Z,13.60
2022-11-19T13:26:20.740Z,12.80
2022-11-19T13:28:53.779Z,13.00
2022-11-19T13:31:29.450Z,12.63
2022-11-19T13:34:11.704Z,12.33
2022-11-19T13:36:46.695Z,13.23
2022-11-19T13:39:37.210Z,11.93
2022-11-19T13:42:27.513Z,13.33
2022-11-19T13:44:55.227Z,12.63
2022-11-19T13:47:33.279Z,13.47
2022-11-19T13:50:11.998Z,13.77
2022-11-19T13:52:54.154Z,12.47
2022-11-19T13:55:42.802Z,12.67
2022-11-19T13:58:17.964Z,12.23
2022-11-19T14:01:08.972Z,15.57
2022-11-19T14:03:57.347Z,14.50
2022-11-19T14:06:47.200Z,13.00
2022-11-19T14:09:29.964Z,13.17
2022-11-19T14:12:12.681Z,13.23
2022-11-19T14:15:38.947Z,13.13
2022-11-19T14:18:51.552Z,14.90
2022-11-19T14:21:42.619Z,13.27
2022-11-19T14:24:43.930Z,15.17
2022-11-19T14:27:24.419Z,13.33
2022-11-19T14:30:02.652Z,13.70
2022-11-19T14:32:32.238Z,17.63
2022-11-19T14:35:02.637Z,13.17
2022-11-19T14:37:49.260Z,14.00
2022-11-19T14:40:28.575Z,13.73
2022-11-19T14:43:19.809Z,16.37
2022-11-19T14:46:03.550Z,12.20
2022-11-19T14:48:41.293Z,14.27
2022-11-19T14:51:17.825Z,15.50
2022-11-19T14:53:50.936Z,16.73
2022-11-19T14:56:21.860Z,15.27
2022-11-19T14:59:17.395Z,17.73
2022-11-19T15:01:59.300Z,15.40
2022-11-19T15:04:34.907Z,20.43
2022-11-19T15:07:08.937Z,19.97
2022-11-19T15:10:11.705Z,17.13
2022-11-19T15:12:51.556Z,19.67
2022-11-19T15:15:21.458Z,22.93
2022-11-19T15:18:02.382Z,23.03
2022-11-19T15:20:53.435Z,16.53
2022-11-19T15:23:39.222Z,15.90
2022-11-19T15:26:38.737Z,23.17
2022-11-19T15:29:30.696Z,17.80
2022-11-19T15:32:21.667Z,23.63
2022-11-19T15:35:10.187Z,17.70
2022-11-19T15:37:52.509Z,24.17
2022-11-19T15:40:24.928Z,18.83
2022-11-19T15:43:05.135Z,23.37
2022-11-19T15:45:39.715Z,24.93
2022-11-19T15:48:15.957Z,22.90
2022-11-19T15:50:44.356Z,18.57
2022-11-19T15:53:20.618Z,22.57
2022-11-19T15:56:01.751Z,16.43
2022-11-19T15:58:44.694Z,18.87
2022-11-19T16:01:20.799Z,22.57
2022-11-19T16:03:50.515Z,15.93
2022-11-19T16:06:27.310Z,20.03
2022-11-19T16:08:57.671Z,20.40
2022-11-19T16:11:47.514Z,18.37
2022-11-19T16:14:44.901Z,21.33
2022-11-19T16:17:41.654Z,19.20
2022-11-19T16:20:10.714Z,24.40
2022-11-19T16:23:01.411Z,18.63
2022-11-19T16:25:40.981Z,21.90
2022-11-19T16:28:25.183Z,23.77
2022-11-19T16:31:04.100Z,27.97
2022-11-19T16:33:33.301Z,25.90
2022-11-19T16:36:20.647Z,33.57
2022-11-19T16:38:53.646Z,22.30
2022-11-19T16:41:42.484Z,28.07
2022-11-19T16:44:14.680Z,27.07
2022-11-19T16:46:42.270Z,23.53
2022-11-19T16:49:50.721Z,22.83
2022-11-19T16:52:37.200Z,22.30
2022-11-19T16:55:24.925Z,25.40
2022-11-19T16:58:00.644Z,21.97
2022-11-19T17:00:36.158Z,21.90
2022-11-19T17:03:21.781Z,23.67
2022-11-19T17:05:53.463Z,20.73
2022-11-19T17:08:36.949Z,28.87
2022-11-19T17:11:36.227Z,22.93
2022-11-19T17:14:35.566Z,22.43
2022-11-19T17:17:04.354Z,19.53
2022-11-19T17:19:33.970Z,19.77
2022-11-19T17:22:18.222Z,20.13
2022-11-19T17:24:47.833Z,19.03
2022-11-19T17:27:35.328Z,24.03
2022-11-19T17:30:25.607Z,22.23
2022-11-19T17:33:05.860Z,25.60
2022-11-19T17:35:40.024Z,20.63
2022-11-19T17:38:27.759Z,31.73
2022-11-19T17:41:04.250Z,22.27
2022-11-19T17:43:58.255Z,29.00
2022-11-19T17:46:28.465Z,24.53
2022-11-19T17:48:57.352Z,27.30
2022-11-19T17:51:26.062Z,22.07
2022-11-19T17:53:55.689Z,28.50
2022-11-19T17:56:28.896Z,29.43
2022-11-19T17:58:56.631Z,33.47
2022-11-19T18:01:23.971Z,27.97
2022-11-19T18:03:51.590Z,34.47
2022-11-19T18:06:19.808Z,31.33
2022-11-19T18:08:47.561Z,31.37
2022-11-19T18:11:18.229Z,35.77
2022-11-19T18:13:49.596Z,32.50
2022-11-19T18:16:27.717Z,28.70
2022-11-19T18:18:57.836Z,30.30
2022-11-19T18:21:27.337Z,32.73
2022-11-19T18:23:54.811Z,32.60
2022-11-19T18:26:22.870Z,32.93
2022-11-19T18:28:50.993Z,40.10
2022-11-19T18:31:24.536Z,26.97
2022-11-19T18:33:52.532Z,28.17
2022-11-19T18:36:19.756Z,30.57
2022-11-19T18:38:47.575Z,29.87
2022-11-19T18:41:19.115Z,25.53
2022-11-19T18:44:05.709Z,32.67
2022-11-19T18:46:33.320Z,33.97
2022-11-19T18:49:00.899Z,33.27
2022-11-19T18:51:30.224Z,27.07
2022-11-19T18:53:57.812Z,33.90
2022-11-19T18:56:25.300Z,33.73
2022-11-19T18:58:58.034Z,31.07
2022-11-19T19:01:27.679Z,35.87
2022-11-19T19:03:55.258Z,31.80
2022-11-19T19:06:25.754Z,35.27
2022-11-19T19:08:53.337Z,33.43
2022-11-19T19:11:41.455Z,37.87
2022-11-19T19:14:08.993Z,35.30
2022-11-19T19:16:36.148Z,33.83
2022-11-19T19:19:03.922Z,33.53
2022-11-19T19:21:31.171Z,36.97
2022-11-19T19:23:58.783Z,36.93
2022-11-19T19:26:26.202Z,37.03
2022-11-19T19:28:54.834Z,35.50
2022-11-19T19:31:23.240Z,35.30
2022-11-19T19:33:51.769Z,36.30
2022-11-19T19:39:02.478Z,41.63
2022-11-19T19:41:29.854Z,42.53
2022-11-19T19:44:01.252Z,36.40
2022-11-19T19:46:29.838Z,39.47
2022-11-19T19:48:58.122Z,40.47
2022-11-19T19:51:28.051Z,34.63
2022-11-19T19:53:56.164Z,43.00
2022-11-19T19:56:26.137Z,47.17
2022-11-19T19:58:54.670Z,40.60
2022-11-19T20:01:33.865Z,46.00
2022-11-19T20:04:06.133Z,44.87
2022-11-19T20:06:37.545Z,46.47
2022-11-19T20:09:09.232Z,44.00
2022-11-19T20:11:38.535Z,49.43
2022-11-19T20:14:06.193Z,46.83
2022-11-19T20:16:35.257Z,47.90
2022-11-19T20:19:03.540Z,50.23
2022-11-19T20:21:34.235Z,44.30
2022-11-19T20:24:08.688Z,47.13
2022-11-19T20:26:39.528Z,44.37
2022-11-19T20:29:07.728Z,36.80
2022-11-19T20:31:35.391Z,40.20
2022-11-19T20:34:04.771Z,45.40
2022-11-19T20:36:33.708Z,41.50
2022-11-19T20:39:02.249Z,43.20
2022-11-19T20:41:48.395Z,42.27
2022-11-19T20:44:20.951Z,40.53
2022-11-19T20:47:09.501Z,44.90
2022-11-19T20:49:40.737Z,40.47
2022-11-19T20:52:08.721Z,38.90
2022-11-19T20:54:37.010Z,35.63
2022-11-19T20:57:04.439Z,41.17
2022-11-19T20:59:32.094Z,40.23
2022-11-19T21:02:01.321Z,42.87
2022-11-19T21:04:29.774Z,38.67
2022-11-19T21:06:57.116Z,43.10
2022-11-19T21:09:25.339Z,49.83
2022-11-19T21:11:52.840Z,39.87
2022-11-19T21:14:20.616Z,38.37
2022-11-19T21:16:48.241Z,41.53
2022-11-19T21:19:15.981Z,37.47
2022-11-19T21:21:45.086Z,43.50
2022-11-19T21:24:13.425Z,45.87
2022-11-19T21:26:40.644Z,42.60
2022-11-19T21:29:08.306Z,43.07
2022-11-19T21:31:41.464Z,39.13
2022-11-19T21:34:11.760Z,45.50
2022-11-19T21:36:40.443Z,41.13
2022-11-19T21:39:09.514Z,40.33
2022-11-19T21:41:37.351Z,35.23
2022-11-19T21:44:05.652Z,40.97
2022-11-19T21:46:34.096Z,42.30
2022-11-19T21:49:02.514Z,42.00
2022-11-19T21:51:30.185Z,39.27
2022-11-19T21:53:59.491Z,41.70
2022-11-19T21:56:27.903Z,42.17
2022-11-19T21:58:55.447Z,44.30
2022-11-19T22:01:22.810Z,40.70
2022-11-19T22:03:50.341Z,40.97
2022-11-19T22:06:17.584Z,40.77
2022-11-19T22:08:45.384Z,40.20
2022-11-19T22:11:31.832Z,45.57
2022-11-19T22:14:05.334Z,46.73
2022-11-19T22:16:35.528Z,39.63
2022-11-19T22:19:03.542Z,54.87
2022-11-19T22:21:30.727Z,39.57
2022-11-19T22:23:58.684Z,48.83
2022-11-19T22:26:26.341Z,36.70
2022-11-19T22:28:54.310Z,48.40
2022-11-19T22:31:21.712Z,41.57
2022-11-19T22:33:52.010Z,41.70
2022-11-19T22:36:21.419Z,42.90
2022-11-19T22:38:49.461Z,45.87
2022-11-19T22:41:19.141Z,42.63
2022-11-19T22:43:46.938Z,46.97
2022-11-19T22:46:15.255Z,50.37
2022-11-19T22:48:42.840Z,47.73
2022-11-19T22:51:11.936Z,50.63
2022-11-19T22:53:42.400Z,47.97
2022-11-19T22:56:12.225Z,40.53
2022-11-19T22:58:40.588Z,43.27
2022-11-19T23:01:17.017Z,37.70
2022-11-19T23:03:45.737Z,40.87
2022-11-19T23:06:13.613Z,40.97
2022-11-19T23:08:41.965Z,46.33
2022-11-19T23:11:09.533Z,46.67
2022-11-19T23:13:39.683Z,44.97
2022-11-19T23:16:14.688Z,39.07
2022-11-19T23:18:50.772Z,41.50
2022-11-19T23:21:23.679Z,44.57
2022-11-19T23:23:51.900Z,46.57
2022-11-19T23:26:22.031Z,37.37
2022-11-19T23:28:50.167Z,43.37
2022-11-19T23:31:20.324Z,41.53
2022-11-19T23:33:49.203Z,46.67
2022-11-19T23:36:19.436Z,46.53
2022-11-19T23:38:47.134Z,40.63
2022-11-19T23:41:17.202Z,39.10
2022-11-19T23:43:45.779Z,37.47
2022-11-19T23:46:22.957Z,41.27
2022-11-19T23:48:51.686Z,37.87
2022-11-19T23:51:22.302Z,37.23
2022-11-19T23:53:50.233Z,40.33
2022-11-19T23:56:19.481Z,33.07
2022-11-19T23:58:47.556Z,37.17
